sensor_id;sensor_type;location;lat;lon;timestamp;temperature;humidity
48752;DHT22;34544;48.836;9.174;2023-06-01T00:00:00;14.20;99.90
48752;DHT22;34544;48.836;9.174;2023-06-01T00:02:26;14.20;99.90
48752;DHT22;34544;48.836;9.174;2023-06-01T00:04:52;14.10;99.90
48752;DHT22;34544;48.836;9.174;2023-06-01T00:07:18;14.00;99.90
48752;DHT22;34544;48.836;9.174;2023-06-01T00:09:44;14.00;99.90
48752;DHT22;34544;48.836;9.174;2023-06-01T00:12:09;14.00;99.90
48752;DHT22;34544;48.836;9.174;2023-06-01T00:14:35;13.90;99.90
48752;DHT22;34544;48.836;9.174;2023-06-01T00:17:01;13.90;99.90
48752;DHT22;34544;48.836;9.174;2023-06-01T00:19:28;13.90;99.90
48752;DHT22;34544;48.836;9.174;2023-06-01T00:21:54;13.90;99.90
48752;DHT22;34544;48.836;9.174;2023-06-01T00:24:21;13.90;99.90
48752;DHT22;34544;48.836;9.174;2023-06-01T00:26:48;13.80;99.90
48752;DHT22;34544;48.836;9.174;2023-06-01T00:29:13;13.70;99.90
48752;DHT22;34544;48.836;9.174;2023-06-01T00:31:39;13.70;99.90
48752;DHT22;34544;48.836;9.174;2023-06-01T00:34:05;13.70;99.90
48752;DHT22;34544;48.836;9.174;2023-06-01T00:36:33;13.70;99.90
48752;DHT22;34544;48.836;9.174;2023-06-01T00:38:58;13.70;99.90
48752;DHT22;34544;48.836;9.174;2023-06-01T00:41:31;13.60;99.90
48752;DHT22;34544;48.836;9.174;2023-06-01T00:43:57;13.60;99.90
48752;DHT22;34544;48.836;9.174;2023-06-01T00:46:22;13.60;99.90
48752;DHT22;34544;48.836;9.174;2023-06-01T00:48:49;13.50;99.90
48752;DHT22;34544;48.836;9.174;2023-06-01T00:51:16;13.50;99.90
48752;DHT22;34544;48.836;9.174;2023-06-01T00:53:42;13.50;99.90
48752;DHT22;34544;48.836;9.174;2023-06-01T00:56:10;13.50;99.90
48752;DHT22;34544;48.836;9.174;2023-06-01T00:58:37;13.40;99.90
48752;DHT22;34544;48.836;9.174;2023-06-01T01:01:03;13.40;99.90
48752;DHT22;34544;48.836;9.174;2023-06-01T01:03:29;13.40;99.90
48752;DHT22;34544;48.836;9.174;2023-06-01T01:06:09;13.40;99.90
48752;DHT22;34544;48.836;9.174;2023-06-01T01:08:52;13.40;99.90
48752;DHT22;34544;48.836;9.174;2023-06-01T01:11:29;13.40;99.90
48752;DHT22;34544;48.836;9.174;2023-06-01T01:14:22;13.30;99.90
48752;DHT22;34544;48.836;9.174;2023-06-01T01:17:01;13.20;99.90
48752;DHT22;34544;48.836;9.174;2023-06-01T01:19:52;13.20;99.90
48752;DHT22;34544;48.836;9.174;2023-06-01T01:28:58;13.20;99.90
48752;DHT22;34544;48.836;9.174;2023-06-01T01:31:04;13.10;99.90
48752;DHT22;34544;48.836;9.174;2023-06-01T01:33:32;13.10;99.90
48752;DHT22;34544;48.836;9.174;2023-06-01T01:35:59;13.10;99.90
48752;DHT22;34544;48.836;9.174;2023-06-01T01:38:26;13.00;99.90
48752;DHT22;34544;48.836;9.174;2023-06-01T01:40:52;13.00;99.90
48752;DHT22;34544;48.836;9.174;2023-06-01T01:43:22;13.00;99.90
48752;DHT22;34544;48.836;9.174;2023-06-01T01:45:59;13.00;99.90
48752;DHT22;34544;48.836;9.174;2023-06-01T01:48:32;13.00;99.90
48752;DHT22;34544;48.836;9.174;2023-06-01T01:51:16;13.00;99.90
48752;DHT22;34544;48.836;9.174;2023-06-01T01:53:42;12.90;99.90
48752;DHT22;34544;48.836;9.174;2023-06-01T01:56:12;12.90;99.90
48752;DHT22;34544;48.836;9.174;2023-06-01T01:58:39;12.90;99.90
48752;DHT22;34544;48.836;9.174;2023-06-01T02:01:07;12.90;99.90
48752;DHT22;34544;48.836;9.174;2023-06-01T02:03:34;12.80;99.90
48752;DHT22;34544;48.836;9.174;2023-06-01T02:06:00;12.80;99.90
48752;DHT22;34544;48.836;9.174;2023-06-01T02:08:25;12.80;99.90
48752;DHT22;34544;48.836;9.174;2023-06-01T02:10:51;12.80;99.90
48752;DHT22;34544;48.836;9.174;2023-06-01T02:13:17;12.80;99.90
48752;DHT22;34544;48.836;9.174;2023-06-01T02:15:42;12.70;99.90
48752;DHT22;34544;48.836;9.174;2023-06-01T02:18:08;12.70;99.90
48752;DHT22;34544;48.836;9.174;2023-06-01T02:20:34;12.70;99.90
48752;DHT22;34544;48.836;9.174;2023-06-01T02:22:59;12.60;99.90
48752;DHT22;34544;48.836;9.174;2023-06-01T02:25:25;12.60;99.90
48752;DHT22;34544;48.836;9.174;2023-06-01T02:27:51;12.60;99.90
48752;DHT22;34544;48.836;9.174;2023-06-01T02:30:16;12.60;99.90
48752;DHT22;34544;48.836;9.174;2023-06-01T02:32:42;12.60;99.90
48752;DHT22;34544;48.836;9.174;2023-06-01T02:35:11;12.60;99.90
48752;DHT22;34544;48.836;9.174;2023-06-01T02:37:37;12.50;99.90
48752;DHT22;34544;48.836;9.174;2023-06-01T02:40:03;12.50;99.90
48752;DHT22;34544;48.836;9.174;2023-06-01T02:42:29;12.50;99.90
48752;DHT22;34544;48.836;9.174;2023-06-01T02:44:55;12.50;99.90
48752;DHT22;34544;48.836;9.174;2023-06-01T02:47:20;12.40;99.90
48752;DHT22;34544;48.836;9.174;2023-06-01T02:49:47;12.40;99.90
48752;DHT22;34544;48.836;9.174;2023-06-01T02:52:12;12.30;99.90
48752;DHT22;34544;48.836;9.174;2023-06-01T02:54:38;12.40;99.90
48752;DHT22;34544;48.836;9.174;2023-06-01T02:57:22;12.30;99.90
48752;DHT22;34544;48.836;9.174;2023-06-01T02:59:53;12.30;99.90
48752;DHT22;34544;48.836;9.174;2023-06-01T03:02:19;12.20;99.90
48752;DHT22;34544;48.836;9.174;2023-06-01T03:04:45;12.20;99.90
48752;DHT22;34544;48.836;9.174;2023-06-01T03:07:11;12.20;99.90
48752;DHT22;34544;48.836;9.174;2023-06-01T03:09:44;12.20;99.90
48752;DHT22;34544;48.836;9.174;2023-06-01T03:12:25;12.10;99.90
48752;DHT22;34544;48.836;9.174;2023-06-01T03:14:50;12.10;99.90
48752;DHT22;34544;48.836;9.174;2023-06-01T03:17:16;12.10;99.90
48752;DHT22;34544;48.836;9.174;2023-06-01T03:19:42;12.10;99.90
48752;DHT22;34544;48.836;9.174;2023-06-01T03:22:16;12.10;99.90
48752;DHT22;34544;48.836;9.174;2023-06-01T03:24:42;12.10;99.90
48752;DHT22;34544;48.836;9.174;2023-06-01T03:27:09;12.00;99.90
48752;DHT22;34544;48.836;9.174;2023-06-01T03:29:38;12.10;99.90
48752;DHT22;34544;48.836;9.174;2023-06-01T03:32:04;12.00;99.90
48752;DHT22;34544;48.836;9.174;2023-06-01T03:34:30;12.10;99.90
48752;DHT22;34544;48.836;9.174;2023-06-01T03:36:58;12.10;99.90
48752;DHT22;34544;48.836;9.174;2023-06-01T03:39:24;12.00;99.90
48752;DHT22;34544;48.836;9.174;2023-06-01T03:41:50;12.10;99.90
48752;DHT22;34544;48.836;9.174;2023-06-01T03:44:16;12.10;99.90
48752;DHT22;34544;48.836;9.174;2023-06-01T03:46:43;12.10;99.90
48752;DHT22;34544;48.836;9.174;2023-06-01T03:49:09;12.10;99.90
48752;DHT22;34544;48.836;9.174;2023-06-01T03:51:35;12.10;99.90
48752;DHT22;34544;48.836;9.174;2023-06-01T03:54:01;12.20;99.90
48752;DHT22;34544;48.836;9.174;2023-06-01T03:56:27;12.20;99.90
48752;DHT22;34544;48.836;9.174;2023-06-01T03:58:57;12.20;99.90
48752;DHT22;34544;48.836;9.174;2023-06-01T04:01:23;12.20;99.90
48752;DHT22;34544;48.836;9.174;2023-06-01T04:03:49;12.20;99.90
48752;DHT22;34544;48.836;9.174;2023-06-01T04:06:15;12.20;99.90
48752;DHT22;34544;48.836;9.174;2023-06-01T04:08:45;12.30;99.90
48752;DHT22;34544;48.836;9.174;2023-06-01T04:11:17;12.30;99.90
48752;DHT22;34544;48.836;9.174;2023-06-01T04:13:44;12.40;99.90
48752;DHT22;34544;48.836;9.174;2023-06-01T04:16:10;12.40;99.90
48752;DHT22;34544;48.836;9.174;2023-06-01T04:18:37;12.40;99.90
48752;DHT22;34544;48.836;9.174;2023-06-01T04:21:03;12.50;99.90
48752;DHT22;34544;48.836;9.174;2023-06-01T04:23:29;12.60;99.90
48752;DHT22;34544;48.836;9.174;2023-06-01T04:25:56;12.70;99.90
48752;DHT22;34544;48.836;9.174;2023-06-01T04:28:28;12.80;99.90
48752;DHT22;34544;48.836;9.174;2023-06-01T04:30:56;12.80;99.90
48752;DHT22;34544;48.836;9.174;2023-06-01T04:33:22;13.00;99.90
48752;DHT22;34544;48.836;9.174;2023-06-01T04:35:51;13.10;99.90
48752;DHT22;34544;48.836;9.174;2023-06-01T04:38:20;13.20;99.90
48752;DHT22;34544;48.836;9.174;2023-06-01T04:40:48;13.20;99.90
48752;DHT22;34544;48.836;9.174;2023-06-01T04:43:14;13.30;99.90
48752;DHT22;34544;48.836;9.174;2023-06-01T04:45:45;13.40;99.90
48752;DHT22;34544;48.836;9.174;2023-06-01T04:48:11;13.50;99.90
48752;DHT22;34544;48.836;9.174;2023-06-01T04:50:47;13.70;99.90
48752;DHT22;34544;48.836;9.174;2023-06-01T04:53:12;13.80;99.90
48752;DHT22;34544;48.836;9.174;2023-06-01T04:55:39;13.70;99.90
48752;DHT22;34544;48.836;9.174;2023-06-01T04:58:05;13.80;99.90
48752;DHT22;34544;48.836;9.174;2023-06-01T05:02:57;14.00;99.90
48752;DHT22;34544;48.836;9.174;2023-06-01T05:05:23;14.10;99.90
48752;DHT22;34544;48.836;9.174;2023-06-01T05:07:49;14.20;99.90
48752;DHT22;34544;48.836;9.174;2023-06-01T05:10:16;14.30;99.90
48752;DHT22;34544;48.836;9.174;2023-06-01T05:12:43;14.40;99.90
48752;DHT22;34544;48.836;9.174;2023-06-01T05:15:10;14.60;99.90
48752;DHT22;34544;48.836;9.174;2023-06-01T05:17:37;14.70;99.90
48752;DHT22;34544;48.836;9.174;2023-06-01T05:20:08;14.80;99.90
48752;DHT22;34544;48.836;9.174;2023-06-01T05:22:35;15.00;99.90
48752;DHT22;34544;48.836;9.174;2023-06-01T05:25:02;15.10;99.90
48752;DHT22;34544;48.836;9.174;2023-06-01T05:27:28;15.20;99.90
48752;DHT22;34544;48.836;9.174;2023-06-01T05:29:54;15.30;99.90
48752;DHT22;34544;48.836;9.174;2023-06-01T05:32:21;15.40;99.90
48752;DHT22;34544;48.836;9.174;2023-06-01T05:34:47;15.50;99.90
48752;DHT22;34544;48.836;9.174;2023-06-01T05:37:12;15.60;99.90
48752;DHT22;34544;48.836;9.174;2023-06-01T05:39:38;15.70;99.90
48752;DHT22;34544;48.836;9.174;2023-06-01T05:42:04;15.80;99.90
48752;DHT22;34544;48.836;9.174;2023-06-01T05:44:35;15.90;99.90
48752;DHT22;34544;48.836;9.174;2023-06-01T05:47:01;16.00;99.90
48752;DHT22;34544;48.836;9.174;2023-06-01T05:49:26;16.10;99.90
48752;DHT22;34544;48.836;9.174;2023-06-01T05:51:56;16.10;99.90
48752;DHT22;34544;48.836;9.174;2023-06-01T05:54:22;16.30;99.90
48752;DHT22;34544;48.836;9.174;2023-06-01T05:56:48;16.30;99.90
48752;DHT22;34544;48.836;9.174;2023-06-01T05:59:15;16.40;99.90
48752;DHT22;34544;48.836;9.174;2023-06-01T06:01:42;16.50;99.90
48752;DHT22;34544;48.836;9.174;2023-06-01T06:04:09;16.60;99.90
48752;DHT22;34544;48.836;9.174;2023-06-01T06:06:36;16.70;99.90
48752;DHT22;34544;48.836;9.174;2023-06-01T06:09:02;16.70;99.90
48752;DHT22;34544;48.836;9.174;2023-06-01T06:11:29;16.80;99.90
48752;DHT22;34544;48.836;9.174;2023-06-01T06:13:55;16.80;99.90
48752;DHT22;34544;48.836;9.174;2023-06-01T06:16:21;16.90;99.90
48752;DHT22;34544;48.836;9.174;2023-06-01T06:18:47;17.00;99.90
48752;DHT22;34544;48.836;9.174;2023-06-01T06:21:13;17.10;99.90
48752;DHT22;34544;48.836;9.174;2023-06-01T06:23:38;17.20;99.90
48752;DHT22;34544;48.836;9.174;2023-06-01T06:26:05;17.20;99.90
48752;DHT22;34544;48.836;9.174;2023-06-01T06:28:31;17.30;99.90
48752;DHT22;34544;48.836;9.174;2023-06-01T06:30:58;17.30;99.90
48752;DHT22;34544;48.836;9.174;2023-06-01T06:33:24;17.40;99.90
48752;DHT22;34544;48.836;9.174;2023-06-01T06:35:49;17.50;99.90
48752;DHT22;34544;48.836;9.174;2023-06-01T06:38:15;17.50;99.90
48752;DHT22;34544;48.836;9.174;2023-06-01T06:40:42;17.60;99.90
48752;DHT22;34544;48.836;9.174;2023-06-01T06:43:08;17.80;99.90
48752;DHT22;34544;48.836;9.174;2023-06-01T06:45:34;17.90;99.90
48752;DHT22;34544;48.836;9.174;2023-06-01T06:48:00;18.00;99.90
48752;DHT22;34544;48.836;9.174;2023-06-01T06:50:25;18.20;99.90
48752;DHT22;34544;48.836;9.174;2023-06-01T06:52:51;18.30;99.90
48752;DHT22;34544;48.836;9.174;2023-06-01T06:55:17;18.40;99.90
48752;DHT22;34544;48.836;9.174;2023-06-01T06:57:43;18.60;99.90
48752;DHT22;34544;48.836;9.174;2023-06-01T07:00:09;18.70;99.90
48752;DHT22;34544;48.836;9.174;2023-06-01T07:02:40;19.00;99.90
48752;DHT22;34544;48.836;9.174;2023-06-01T07:05:07;19.30;99.90
48752;DHT22;34544;48.836;9.174;2023-06-01T07:07:34;19.40;99.90
48752;DHT22;34544;48.836;9.174;2023-06-01T07:09:59;19.70;99.90
48752;DHT22;34544;48.836;9.174;2023-06-01T07:12:25;20.00;99.90
48752;DHT22;34544;48.836;9.174;2023-06-01T07:14:51;20.30;99.90
48752;DHT22;34544;48.836;9.174;2023-06-01T07:17:17;20.50;99.90
48752;DHT22;34544;48.836;9.174;2023-06-01T07:19:42;20.70;99.90
48752;DHT22;34544;48.836;9.174;2023-06-01T07:22:08;20.60;99.90
48752;DHT22;34544;48.836;9.174;2023-06-01T07:24:33;21.20;99.90
48752;DHT22;34544;48.836;9.174;2023-06-01T07:26:59;21.30;99.90
48752;DHT22;34544;48.836;9.174;2023-06-01T07:29:25;21.50;99.90
48752;DHT22;34544;48.836;9.174;2023-06-01T07:31:51;21.60;99.90
48752;DHT22;34544;48.836;9.174;2023-06-01T07:34:18;21.80;99.20
48752;DHT22;34544;48.836;9.174;2023-06-01T07:39:11;22.20;99.90
48752;DHT22;34544;48.836;9.174;2023-06-01T07:41:37;22.40;98.00
48752;DHT22;34544;48.836;9.174;2023-06-01T07:44:05;22.60;96.40
48752;DHT22;34544;48.836;9.174;2023-06-01T07:46:31;22.80;95.90
48752;DHT22;34544;48.836;9.174;2023-06-01T07:48:57;22.90;97.00
48752;DHT22;34544;48.836;9.174;2023-06-01T07:51:23;23.20;96.50
48752;DHT22;34544;48.836;9.174;2023-06-01T07:53:48;23.40;95.90
48752;DHT22;34544;48.836;9.174;2023-06-01T07:58:40;23.90;94.90
48752;DHT22;34544;48.836;9.174;2023-06-01T08:01:07;24.10;95.00
48752;DHT22;34544;48.836;9.174;2023-06-01T08:03:32;24.30;94.70
48752;DHT22;34544;48.836;9.174;2023-06-01T08:05:59;24.50;93.90
48752;DHT22;34544;48.836;9.174;2023-06-01T08:08:30;24.60;93.50
48752;DHT22;34544;48.836;9.174;2023-06-01T08:10:56;24.60;93.60
48752;DHT22;34544;48.836;9.174;2023-06-01T08:13:22;24.80;93.90
48752;DHT22;34544;48.836;9.174;2023-06-01T08:15:51;25.00;93.30
48752;DHT22;34544;48.836;9.174;2023-06-01T08:18:18;25.30;92.60
48752;DHT22;34544;48.836;9.174;2023-06-01T08:20:45;25.50;91.70
48752;DHT22;34544;48.836;9.174;2023-06-01T08:23:11;25.60;90.80
48752;DHT22;34544;48.836;9.174;2023-06-01T08:25:37;25.60;91.20
48752;DHT22;34544;48.836;9.174;2023-06-01T08:28:03;25.80;91.70
48752;DHT22;34544;48.836;9.174;2023-06-01T08:30:28;26.00;90.50
48752;DHT22;34544;48.836;9.174;2023-06-01T08:32:54;26.10;91.20
48752;DHT22;34544;48.836;9.174;2023-06-01T08:35:20;26.40;90.60
48752;DHT22;34544;48.836;9.174;2023-06-01T08:37:49;26.60;90.60
48752;DHT22;34544;48.836;9.174;2023-06-01T08:40:15;26.80;89.80
48752;DHT22;34544;48.836;9.174;2023-06-01T08:45:37;27.20;87.20
48752;DHT22;34544;48.836;9.174;2023-06-01T08:48:05;27.30;88.20
48752;DHT22;34544;48.836;9.174;2023-06-01T08:50:34;27.40;87.50
48752;DHT22;34544;48.836;9.174;2023-06-01T08:53:00;27.50;88.80
48752;DHT22;34544;48.836;9.174;2023-06-01T08:55:26;27.70;86.20
48752;DHT22;34544;48.836;9.174;2023-06-01T08:57:53;27.80;85.50
48752;DHT22;34544;48.836;9.174;2023-06-01T09:00:20;28.00;86.20
48752;DHT22;34544;48.836;9.174;2023-06-01T09:02:45;28.10;84.80
48752;DHT22;34544;48.836;9.174;2023-06-01T09:05:12;28.20;83.10
48752;DHT22;34544;48.836;9.174;2023-06-01T09:07:39;28.30;85.10
48752;DHT22;34544;48.836;9.174;2023-06-01T09:10:05;28.40;84.30
48752;DHT22;34544;48.836;9.174;2023-06-01T09:12:31;28.60;84.10
48752;DHT22;34544;48.836;9.174;2023-06-01T09:17:32;28.80;84.40
48752;DHT22;34544;48.836;9.174;2023-06-01T09:19:58;29.00;83.50
48752;DHT22;34544;48.836;9.174;2023-06-01T09:22:23;29.20;83.00
48752;DHT22;34544;48.836;9.174;2023-06-01T09:24:57;29.50;82.00
48752;DHT22;34544;48.836;9.174;2023-06-01T09:27:24;29.50;82.90
48752;DHT22;34544;48.836;9.174;2023-06-01T09:29:55;29.70;81.80
48752;DHT22;34544;48.836;9.174;2023-06-01T09:32:21;29.70;80.20
48752;DHT22;34544;48.836;9.174;2023-06-01T09:34:47;29.50;79.20
48752;DHT22;34544;48.836;9.174;2023-06-01T09:37:13;29.40;81.00
48752;DHT22;34544;48.836;9.174;2023-06-01T09:39:39;29.40;79.50
48752;DHT22;34544;48.836;9.174;2023-06-01T09:42:06;29.50;80.30
48752;DHT22;34544;48.836;9.174;2023-06-01T09:44:36;29.70;80.70
48752;DHT22;34544;48.836;9.174;2023-06-01T09:47:04;30.10;81.30
48752;DHT22;34544;48.836;9.174;2023-06-01T09:49:43;30.40;79.70
48752;DHT22;34544;48.836;9.174;2023-06-01T09:52:14;30.70;79.40
48752;DHT22;34544;48.836;9.174;2023-06-01T09:54:48;31.00;78.20
48752;DHT22;34544;48.836;9.174;2023-06-01T09:57:25;31.40;78.40
48752;DHT22;34544;48.836;9.174;2023-06-01T09:59:51;31.50;76.40
48752;DHT22;34544;48.836;9.174;2023-06-01T10:02:21;31.50;76.00
48752;DHT22;34544;48.836;9.174;2023-06-01T10:07:16;31.80;75.20
48752;DHT22;34544;48.836;9.174;2023-06-01T10:09:45;31.70;74.10
48752;DHT22;34544;48.836;9.174;2023-06-01T10:12:10;31.80;75.70
48752;DHT22;34544;48.836;9.174;2023-06-01T10:14:37;31.80;74.90
48752;DHT22;34544;48.836;9.174;2023-06-01T10:17:07;32.00;75.30
48752;DHT22;34544;48.836;9.174;2023-06-01T10:19:33;32.10;74.60
48752;DHT22;34544;48.836;9.174;2023-06-01T10:22:02;32.10;71.00
48752;DHT22;34544;48.836;9.174;2023-06-01T10:24:29;31.90;71.60
48752;DHT22;34544;48.836;9.174;2023-06-01T10:29:31;32.20;73.20
48752;DHT22;34544;48.836;9.174;2023-06-01T10:31:57;32.40;72.80
48752;DHT22;34544;48.836;9.174;2023-06-01T10:34:44;32.60;72.60
48752;DHT22;34544;48.836;9.174;2023-06-01T10:37:13;32.90;73.80
48752;DHT22;34544;48.836;9.174;2023-06-01T10:39:39;33.20;71.60
48752;DHT22;34544;48.836;9.174;2023-06-01T10:47:06;33.10;68.90
48752;DHT22;34544;48.836;9.174;2023-06-01T10:52:33;33.50;67.20
48752;DHT22;34544;48.836;9.174;2023-06-01T10:57:45;33.70;66.60
48752;DHT22;34544;48.836;9.174;2023-06-01T11:07:59;33.70;62.40
48752;DHT22;34544;48.836;9.174;2023-06-01T11:13:24;33.30;67.00
48752;DHT22;34544;48.836;9.174;2023-06-01T11:18:46;34.00;65.30
48752;DHT22;34544;48.836;9.174;2023-06-01T11:21:20;34.40;65.70
48752;DHT22;34544;48.836;9.174;2023-06-01T11:23:57;34.90;65.70
48752;DHT22;34544;48.836;9.174;2023-06-01T11:26:41;35.40;63.20
48752;DHT22;34544;48.836;9.174;2023-06-01T11:29:22;35.50;62.70
48752;DHT22;34544;48.836;9.174;2023-06-01T11:31:51;35.50;60.70
48752;DHT22;34544;48.836;9.174;2023-06-01T11:34:18;35.80;61.50
48752;DHT22;34544;48.836;9.174;2023-06-01T11:36:48;35.80;59.00
48752;DHT22;34544;48.836;9.174;2023-06-01T11:39:20;35.70;59.30
48752;DHT22;34544;48.836;9.174;2023-06-01T11:42:08;35.10;59.70
48752;DHT22;34544;48.836;9.174;2023-06-01T11:44:34;34.80;61.40
48752;DHT22;34544;48.836;9.174;2023-06-01T11:47:01;34.40;62.20
48752;DHT22;34544;48.836;9.174;2023-06-01T11:49:27;34.60;61.70
48752;DHT22;34544;48.836;9.174;2023-06-01T11:51:54;34.70;63.10
48752;DHT22;34544;48.836;9.174;2023-06-01T11:54:23;35.10;63.90
48752;DHT22;34544;48.836;9.174;2023-06-01T11:56:50;35.30;62.50
48752;DHT22;34544;48.836;9.174;2023-06-01T11:59:17;35.60;62.10
48752;DHT22;34544;48.836;9.174;2023-06-01T12:01:45;35.80;59.50
48752;DHT22;34544;48.836;9.174;2023-06-01T12:04:20;35.70;60.50
48752;DHT22;34544;48.836;9.174;2023-06-01T12:06:46;35.50;59.20
48752;DHT22;34544;48.836;9.174;2023-06-01T12:09:12;35.40;59.50
48752;DHT22;34544;48.836;9.174;2023-06-01T12:11:41;35.60;61.10
48752;DHT22;34544;48.836;9.174;2023-06-01T12:14:08;35.60;60.40
48752;DHT22;34544;48.836;9.174;2023-06-01T12:16:54;35.80;62.20
48752;DHT22;34544;48.836;9.174;2023-06-01T12:19:22;36.20;62.80
48752;DHT22;34544;48.836;9.174;2023-06-01T12:21:52;36.50;63.50
48752;DHT22;34544;48.836;9.174;2023-06-01T12:24:25;36.70;62.50
48752;DHT22;34544;48.836;9.174;2023-06-01T12:26:52;36.80;61.90
48752;DHT22;34544;48.836;9.174;2023-06-01T12:29:37;36.60;62.90
48752;DHT22;34544;48.836;9.174;2023-06-01T12:32:03;36.70;63.10
48752;DHT22;34544;48.836;9.174;2023-06-01T12:34:29;36.90;63.10
48752;DHT22;34544;48.836;9.174;2023-06-01T12:36:55;37.20;62.20
48752;DHT22;34544;48.836;9.174;2023-06-01T12:39:39;37.20;60.80
48752;DHT22;34544;48.836;9.174;2023-06-01T12:42:06;37.30;60.70
48752;DHT22;34544;48.836;9.174;2023-06-01T12:44:32;37.40;60.30
48752;DHT22;34544;48.836;9.174;2023-06-01T12:47:02;37.00;59.50
48752;DHT22;34544;48.836;9.174;2023-06-01T12:49:29;37.20;61.10
48752;DHT22;34544;48.836;9.174;2023-06-01T12:51:55;37.50;60.50
48752;DHT22;34544;48.836;9.174;2023-06-01T12:54:21;37.80;60.10
48752;DHT22;34544;48.836;9.174;2023-06-01T12:56:48;38.10;61.50
48752;DHT22;34544;48.836;9.174;2023-06-01T12:59:14;38.30;60.60
48752;DHT22;34544;48.836;9.174;2023-06-01T13:01:40;38.50;59.20
48752;DHT22;34544;48.836;9.174;2023-06-01T13:04:06;38.30;58.70
48752;DHT22;34544;48.836;9.174;2023-06-01T13:06:33;38.10;59.20
48752;DHT22;34544;48.836;9.174;2023-06-01T13:09:00;38.10;58.70
48752;DHT22;34544;48.836;9.174;2023-06-01T13:11:26;38.30;58.70
48752;DHT22;34544;48.836;9.174;2023-06-01T13:13:52;38.50;57.80
48752;DHT22;34544;48.836;9.174;2023-06-01T13:16:19;38.30;57.30
48752;DHT22;34544;48.836;9.174;2023-06-01T13:18:45;38.00;58.00
48752;DHT22;34544;48.836;9.174;2023-06-01T13:21:13;37.80;59.00
48752;DHT22;34544;48.836;9.174;2023-06-01T13:23:40;37.70;58.60
48752;DHT22;34544;48.836;9.174;2023-06-01T13:26:06;37.80;57.40
48752;DHT22;34544;48.836;9.174;2023-06-01T13:28:33;37.70;56.20
48752;DHT22;34544;48.836;9.174;2023-06-01T13:30:59;37.50;57.30
48752;DHT22;34544;48.836;9.174;2023-06-01T13:33:25;37.60;57.80
48752;DHT22;34544;48.836;9.174;2023-06-01T13:35:51;37.70;57.90
48752;DHT22;34544;48.836;9.174;2023-06-01T13:38:16;38.00;57.00
48752;DHT22;34544;48.836;9.174;2023-06-01T13:40:42;38.00;57.30
48752;DHT22;34544;48.836;9.174;2023-06-01T13:43:08;37.90;56.60
48752;DHT22;34544;48.836;9.174;2023-06-01T13:45:34;37.70;56.60
48752;DHT22;34544;48.836;9.174;2023-06-01T13:48:01;37.70;56.60
48752;DHT22;34544;48.836;9.174;2023-06-01T13:50:27;37.90;56.10
48752;DHT22;34544;48.836;9.174;2023-06-01T13:52:52;37.90;55.80
48752;DHT22;34544;48.836;9.174;2023-06-01T13:55:19;37.70;56.00
48752;DHT22;34544;48.836;9.174;2023-06-01T13:57:45;37.60;55.70
48752;DHT22;34544;48.836;9.174;2023-06-01T14:00:11;37.80;56.70
48752;DHT22;34544;48.836;9.174;2023-06-01T14:02:42;37.90;55.30
48752;DHT22;34544;48.836;9.174;2023-06-01T14:05:08;37.60;55.00
48752;DHT22;34544;48.836;9.174;2023-06-01T14:07:36;37.50;55.10
48752;DHT22;34544;48.836;9.174;2023-06-01T14:10:02;37.40;54.60
48752;DHT22;34544;48.836;9.174;2023-06-01T14:12:28;37.70;55.40
48752;DHT22;34544;48.836;9.174;2023-06-01T14:14:53;37.90;55.40
48752;DHT22;34544;48.836;9.174;2023-06-01T14:17:19;38.20;55.20
48752;DHT22;34544;48.836;9.174;2023-06-01T14:19:45;38.30;55.10
48752;DHT22;34544;48.836;9.174;2023-06-01T14:22:11;38.50;55.00
48752;DHT22;34544;48.836;9.174;2023-06-01T14:24:36;38.70;54.80
48752;DHT22;34544;48.836;9.174;2023-06-01T14:27:02;38.80;53.60
48752;DHT22;34544;48.836;9.174;2023-06-01T14:29:28;38.60;54.60
48752;DHT22;34544;48.836;9.174;2023-06-01T14:31:53;38.40;54.70
48752;DHT22;34544;48.836;9.174;2023-06-01T14:34:19;38.30;54.90
48752;DHT22;34544;48.836;9.174;2023-06-01T14:36:45;38.30;54.10
48752;DHT22;34544;48.836;9.174;2023-06-01T14:39:11;38.10;54.80
48752;DHT22;34544;48.836;9.174;2023-06-01T14:41:36;38.00;54.70
48752;DHT22;34544;48.836;9.174;2023-06-01T14:44:02;37.90;54.70
48752;DHT22;34544;48.836;9.174;2023-06-01T14:46:28;37.80;54.60
48752;DHT22;34544;48.836;9.174;2023-06-01T14:48:54;37.50;55.00
48752;DHT22;34544;48.836;9.174;2023-06-01T14:51:19;37.40;55.00
48752;DHT22;34544;48.836;9.174;2023-06-01T14:53:45;37.50;55.00
48752;DHT22;34544;48.836;9.174;2023-06-01T14:56:11;37.80;55.90
48752;DHT22;34544;48.836;9.174;2023-06-01T14:58:37;38.10;55.30
48752;DHT22;34544;48.836;9.174;2023-06-01T15:01:02;38.20;54.60
48752;DHT22;34544;48.836;9.174;2023-06-01T15:03:28;38.10;54.90
48752;DHT22;34544;48.836;9.174;2023-06-01T15:05:53;38.00;54.40
48752;DHT22;34544;48.836;9.174;2023-06-01T15:08:19;38.00;54.30
48752;DHT22;34544;48.836;9.174;2023-06-01T15:10:46;37.70;53.90
48752;DHT22;34544;48.836;9.174;2023-06-01T15:13:12;37.30;54.00
48752;DHT22;34544;48.836;9.174;2023-06-01T15:15:39;37.30;54.70
48752;DHT22;34544;48.836;9.174;2023-06-01T15:18:06;37.30;54.90
48752;DHT22;34544;48.836;9.174;2023-06-01T15:20:31;37.40;54.70
48752;DHT22;34544;48.836;9.174;2023-06-01T15:22:57;37.30;55.00
48752;DHT22;34544;48.836;9.174;2023-06-01T15:25:22;37.50;55.50
48752;DHT22;34544;48.836;9.174;2023-06-01T15:27:48;37.70;54.60
48752;DHT22;34544;48.836;9.174;2023-06-01T15:30:14;37.40;54.10
48752;DHT22;34544;48.836;9.174;2023-06-01T15:32:40;37.50;55.10
48752;DHT22;34544;48.836;9.174;2023-06-01T15:35:06;37.50;54.60
48752;DHT22;34544;48.836;9.174;2023-06-01T15:37:34;37.60;54.50
48752;DHT22;34544;48.836;9.174;2023-06-01T15:40:01;37.60;54.10
48752;DHT22;34544;48.836;9.174;2023-06-01T15:42:26;37.60;54.20
48752;DHT22;34544;48.836;9.174;2023-06-01T15:44:52;37.60;54.10
48752;DHT22;34544;48.836;9.174;2023-06-01T15:47:18;37.70;53.80
48752;DHT22;34544;48.836;9.174;2023-06-01T15:49:43;37.60;54.20
48752;DHT22;34544;48.836;9.174;2023-06-01T15:52:09;37.50;54.20
48752;DHT22;34544;48.836;9.174;2023-06-01T15:54:35;37.50;53.90
48752;DHT22;34544;48.836;9.174;2023-06-01T15:57:02;37.40;53.60
48752;DHT22;34544;48.836;9.174;2023-06-01T15:59:29;37.30;53.80
48752;DHT22;34544;48.836;9.174;2023-06-01T16:01:55;37.00;52.40
48752;DHT22;34544;48.836;9.174;2023-06-01T16:04:21;37.20;53.30
48752;DHT22;34544;48.836;9.174;2023-06-01T16:06:48;37.10;53.90
48752;DHT22;34544;48.836;9.174;2023-06-01T16:09:14;37.00;53.10
48752;DHT22;34544;48.836;9.174;2023-06-01T16:11:39;36.90;54.00
48752;DHT22;34544;48.836;9.174;2023-06-01T16:14:05;36.80;53.80
48752;DHT22;34544;48.836;9.174;2023-06-01T16:16:32;36.60;53.70
48752;DHT22;34544;48.836;9.174;2023-06-01T16:18:58;36.70;54.10